TAM9001 SBGO-SBBR
Flight info
| Callsign | TAM9001 |
|---|---|
| Flight time | 0h 33m |
| Altitude | 17000 |
| Route | LODUV Z15 PAJEM |
| Aircraft | A321/M-SDE3GHIJ2J3J5M1RVWXYZ/LB1 |
Departure
| Time | 2026-04-20 15:00 |
|---|---|
| Airport | Santa Genoveva International Airport (SBGO) |
Arrival
| Time | 2026-04-20 15:33 |
|---|---|
| Airport | Presidente Juscelino Kubitschek International Airport (SBBR) |
| Time | Latitude | Longitude | Altitude | Speed | Heading |
|---|---|---|---|---|---|
| 2026-04-20 14:45 | -16.63007 | -49.21512 | 2462 ft | 0 kts | 57° |
| 2026-04-20 14:53 | -16.63009 | -49.21516 | 2462 ft | 3 kts | 57° |
| 2026-04-20 14:53 | -16.63020 | -49.21533 | 2462 ft | 3 kts | 58° |
| 2026-04-20 14:53 | -16.63028 | -49.21551 | 2462 ft | 3 kts | 82° |
| 2026-04-20 14:54 | -16.63028 | -49.21570 | 2462 ft | 3 kts | 117° |
| 2026-04-20 14:54 | -16.63016 | -49.21586 | 2465 ft | 3 kts | 142° |
| 2026-04-20 14:54 | -16.62999 | -49.21598 | 2462 ft | 3 kts | 153° |
| 2026-04-20 14:54 | -16.62986 | -49.21604 | 2466 ft | 0 kts | 155° |
| 2026-04-20 14:56 | -16.63021 | -49.21586 | 2465 ft | 13 kts | 150° |
| 2026-04-20 14:56 | -16.63096 | -49.21526 | 2462 ft | 14 kts | 135° |
| 2026-04-20 14:57 | -16.63155 | -49.21444 | 2465 ft | 14 kts | 121° |
| 2026-04-20 14:57 | -16.63204 | -49.21355 | 2467 ft | 14 kts | 119° |
| 2026-04-20 14:57 | -16.63254 | -49.21264 | 2469 ft | 15 kts | 120° |
| 2026-04-20 14:57 | -16.63306 | -49.21172 | 2467 ft | 15 kts | 120° |
| 2026-04-20 14:58 | -16.63358 | -49.21078 | 2465 ft | 15 kts | 120° |
| 2026-04-20 14:58 | -16.63456 | -49.21015 | 2468 ft | 24 kts | 165° |
| 2026-04-20 14:58 | -16.63573 | -49.21001 | 2469 ft | 14 kts | 201° |
| 2026-04-20 14:58 | -16.63683 | -49.21065 | 2463 ft | 17 kts | 210° |
| 2026-04-20 14:59 | -16.63751 | -49.21102 | 2462 ft | 4 kts | 223° |
| 2026-04-20 14:59 | -16.63736 | -49.21150 | 2466 ft | 19 kts | 297° |
| 2026-04-20 14:59 | -16.63516 | -49.21540 | 2460 ft | 104 kts | 300° |
| 2026-04-20 14:59 | -16.63058 | -49.22366 | 2683 ft | 143 kts | 300° |
| 2026-04-20 15:00 | -16.62558 | -49.23267 | 3382 ft | 148 kts | 301° |
| 2026-04-20 15:00 | -16.61998 | -49.24261 | 3725 ft | 170 kts | 301° |
| 2026-04-20 15:00 | -16.61355 | -49.25400 | 4067 ft | 194 kts | 301° |
| 2026-04-20 15:00 | -16.60628 | -49.26684 | 4389 ft | 219 kts | 301° |
| 2026-04-20 15:01 | -16.59814 | -49.28123 | 4879 ft | 245 kts | 301° |
| 2026-04-20 15:01 | -16.58677 | -49.29546 | 5387 ft | 269 kts | 325° |
| 2026-04-20 15:01 | -16.56912 | -49.30251 | 6241 ft | 279 kts | 355° |
| 2026-04-20 15:01 | -16.55007 | -49.29932 | 7218 ft | 282 kts | 26° |
| 2026-04-20 15:02 | -16.53523 | -49.28624 | 8240 ft | 284 kts | 57° |
| 2026-04-20 15:02 | -16.52741 | -49.26731 | 9343 ft | 286 kts | 71° |
| 2026-04-20 15:02 | -16.52094 | -49.24759 | 10379 ft | 294 kts | 72° |
| 2026-04-20 15:02 | -16.51417 | -49.22664 | 10927 ft | 314 kts | 72° |
| 2026-04-20 15:03 | -16.50717 | -49.20496 | 11736 ft | 323 kts | 71° |
| 2026-04-20 15:03 | -16.49988 | -49.18259 | 12681 ft | 329 kts | 71° |
| 2026-04-20 15:03 | -16.49244 | -49.15981 | 13625 ft | 335 kts | 71° |
| 2026-04-20 15:03 | -16.48483 | -49.13662 | 14440 ft | 342 kts | 71° |
| 2026-04-20 15:04 | -16.47705 | -49.11306 | 15280 ft | 346 kts | 71° |
| 2026-04-20 15:04 | -16.46912 | -49.08922 | 16080 ft | 351 kts | 72° |
| 2026-04-20 15:04 | -16.46108 | -49.06496 | 16749 ft | 357 kts | 72° |
| 2026-04-20 15:04 | -16.45296 | -49.04047 | 17030 ft | 358 kts | 72° |
| 2026-04-20 15:05 | -16.44501 | -49.01645 | 17111 ft | 348 kts | 72° |
| 2026-04-20 15:05 | -16.43730 | -48.99327 | 17134 ft | 335 kts | 72° |
| 2026-04-20 15:05 | -16.42960 | -48.97007 | 17129 ft | 341 kts | 72° |
| 2026-04-20 15:05 | -16.42185 | -48.94666 | 17133 ft | 343 kts | 72° |
| 2026-04-20 15:06 | -16.41407 | -48.92321 | 17138 ft | 343 kts | 72° |
| 2026-04-20 15:06 | -16.40627 | -48.89973 | 17142 ft | 343 kts | 72° |
| 2026-04-20 15:06 | -16.39847 | -48.87625 | 17134 ft | 343 kts | 72° |
| 2026-04-20 15:06 | -16.39071 | -48.85282 | 17130 ft | 343 kts | 72° |
| 2026-04-20 15:07 | -16.38306 | -48.82965 | 17133 ft | 343 kts | 72° |
| 2026-04-20 15:07 | -16.37335 | -48.80697 | 17129 ft | 345 kts | 61° |
| 2026-04-20 15:07 | -16.36029 | -48.78598 | 17118 ft | 346 kts | 58° |
| 2026-04-20 15:07 | -16.34700 | -48.76511 | 17113 ft | 346 kts | 58° |
| 2026-04-20 15:08 | -16.33377 | -48.74425 | 17034 ft | 346 kts | 58° |
| 2026-04-20 15:08 | -16.32055 | -48.72334 | 17042 ft | 345 kts | 58° |
| 2026-04-20 15:08 | -16.30737 | -48.70246 | 17040 ft | 346 kts | 58° |
| 2026-04-20 15:08 | -16.29412 | -48.68148 | 16958 ft | 351 kts | 58° |
| 2026-04-20 15:09 | -16.28069 | -48.66021 | 16540 ft | 351 kts | 58° |
| 2026-04-20 15:09 | -16.26752 | -48.63941 | 16076 ft | 348 kts | 57° |
| 2026-04-20 15:09 | -16.25427 | -48.61850 | 15584 ft | 345 kts | 57° |
| 2026-04-20 15:09 | -16.24273 | -48.59679 | 15132 ft | 341 kts | 68° |
| 2026-04-20 15:10 | -16.23572 | -48.57337 | 14664 ft | 338 kts | 77° |
| 2026-04-20 15:10 | -16.23019 | -48.54964 | 14212 ft | 336 kts | 76° |
| 2026-04-20 15:10 | -16.22465 | -48.52604 | 13735 ft | 335 kts | 75° |
| 2026-04-20 15:10 | -16.21913 | -48.50260 | 13237 ft | 332 kts | 76° |
| 2026-04-20 15:11 | -16.21363 | -48.47935 | 12776 ft | 329 kts | 76° |
| 2026-04-20 15:11 | -16.20818 | -48.45639 | 12296 ft | 325 kts | 76° |
| 2026-04-20 15:11 | -16.20284 | -48.43396 | 11836 ft | 323 kts | 76° |
| 2026-04-20 15:11 | -16.19745 | -48.41137 | 11366 ft | 320 kts | 76° |
| 2026-04-20 15:12 | -16.19213 | -48.38901 | 10906 ft | 316 kts | 76° |
| 2026-04-20 15:12 | -16.18687 | -48.36684 | 10446 ft | 315 kts | 76° |
| 2026-04-20 15:12 | -16.18168 | -48.34497 | 10196 ft | 304 kts | 76° |
| 2026-04-20 15:12 | -16.17672 | -48.32407 | 10036 ft | 293 kts | 76° |
| 2026-04-20 15:13 | -16.17192 | -48.30380 | 9913 ft | 287 kts | 76° |
| 2026-04-20 15:13 | -16.16708 | -48.28332 | 9280 ft | 295 kts | 77° |
| 2026-04-20 15:13 | -16.16233 | -48.26326 | 9113 ft | 283 kts | 77° |
| 2026-04-20 15:13 | -16.15686 | -48.24404 | 8983 ft | 272 kts | 65° |
| 2026-04-20 15:14 | -16.14597 | -48.22866 | 8858 ft | 260 kts | 42° |
| 2026-04-20 15:14 | -16.13079 | -48.21904 | 8571 ft | 257 kts | 21° |
| 2026-04-20 15:14 | -16.11365 | -48.21447 | 8277 ft | 253 kts | 14° |
| 2026-04-20 15:14 | -16.09700 | -48.21031 | 8062 ft | 236 kts | 15° |
| 2026-04-20 15:15 | -16.08142 | -48.20634 | 7754 ft | 228 kts | 16° |
| 2026-04-20 15:15 | -16.06601 | -48.20238 | 7538 ft | 228 kts | 17° |
| 2026-04-20 15:15 | -16.05084 | -48.19846 | 7275 ft | 227 kts | 15° |
| 2026-04-20 15:15 | -16.03551 | -48.19452 | 6959 ft | 227 kts | 16° |
| 2026-04-20 15:16 | -16.02080 | -48.18919 | 6798 ft | 222 kts | 31° |
| 2026-04-20 15:16 | -16.00737 | -48.18123 | 6725 ft | 223 kts | 31° |
| 2026-04-20 15:16 | -15.99388 | -48.17323 | 6627 ft | 223 kts | 31° |
| 2026-04-20 15:16 | -15.98044 | -48.16527 | 6495 ft | 223 kts | 31° |
| 2026-04-20 15:17 | -15.96694 | -48.15727 | 6211 ft | 223 kts | 32° |
| 2026-04-20 15:17 | -15.95346 | -48.14929 | 5849 ft | 223 kts | 32° |
| 2026-04-20 15:17 | -15.94014 | -48.14139 | 5741 ft | 220 kts | 32° |
| 2026-04-20 15:17 | -15.92699 | -48.13358 | 5681 ft | 219 kts | 31° |
| 2026-04-20 15:18 | -15.91428 | -48.12606 | 5639 ft | 204 kts | 30° |
| 2026-04-20 15:18 | -15.90219 | -48.11870 | 5560 ft | 198 kts | 37° |
| 2026-04-20 15:18 | -15.89342 | -48.10809 | 5493 ft | 193 kts | 65° |
| 2026-04-20 15:18 | -15.89052 | -48.09460 | 5474 ft | 193 kts | 87° |
| 2026-04-20 15:19 | -15.88967 | -48.08095 | 5467 ft | 182 kts | 87° |
| 2026-04-20 15:19 | -15.88883 | -48.06814 | 5483 ft | 175 kts | 86° |
| 2026-04-20 15:19 | -15.88805 | -48.05571 | 5483 ft | 172 kts | 87° |
| 2026-04-20 15:19 | -15.88725 | -48.04330 | 5373 ft | 171 kts | 88° |
| 2026-04-20 15:20 | -15.88649 | -48.03144 | 5221 ft | 156 kts | 86° |
| 2026-04-20 15:20 | -15.88581 | -48.02072 | 5036 ft | 143 kts | 87° |
| 2026-04-20 15:20 | -15.88516 | -48.01055 | 4884 ft | 139 kts | 86° |
| 2026-04-20 15:20 | -15.88454 | -48.00064 | 4689 ft | 137 kts | 86° |
| 2026-04-20 15:21 | -15.88391 | -47.99074 | 4519 ft | 138 kts | 84° |
| 2026-04-20 15:21 | -15.88328 | -47.98089 | 4346 ft | 135 kts | 86° |
| 2026-04-20 15:21 | -15.88265 | -47.97106 | 4189 ft | 137 kts | 86° |
| 2026-04-20 15:21 | -15.88202 | -47.96121 | 3988 ft | 136 kts | 86° |
| 2026-04-20 15:22 | -15.88143 | -47.95158 | 3789 ft | 136 kts | 86° |
| 2026-04-20 15:22 | -15.88076 | -47.94180 | 3605 ft | 136 kts | 87° |
| 2026-04-20 15:22 | -15.88017 | -47.93223 | 3513 ft | 125 kts | 86° |
| 2026-04-20 15:22 | -15.87961 | -47.92222 | 3892 ft | 155 kts | 88° |
| 2026-04-20 15:23 | -15.87916 | -47.91027 | 4625 ft | 175 kts | 94° |
| 2026-04-20 15:23 | -15.88151 | -47.89712 | 4965 ft | 195 kts | 103° |
| 2026-04-20 15:23 | -15.88499 | -47.88333 | 5609 ft | 199 kts | 107° |
| 2026-04-20 15:23 | -15.89183 | -47.87054 | 5943 ft | 210 kts | 133° |
| 2026-04-20 15:24 | -15.90475 | -47.86350 | 6007 ft | 215 kts | 168° |
| 2026-04-20 15:24 | -15.91944 | -47.86548 | 6015 ft | 224 kts | 203° |
| 2026-04-20 15:24 | -15.93086 | -47.87661 | 6013 ft | 234 kts | 239° |
| 2026-04-20 15:24 | -15.93537 | -47.89278 | 6023 ft | 234 kts | 258° |
| 2026-04-20 15:25 | -15.93859 | -47.90947 | 6016 ft | 236 kts | 259° |
| 2026-04-20 15:25 | -15.94170 | -47.92620 | 6011 ft | 236 kts | 259° |
| 2026-04-20 15:25 | -15.94483 | -47.94292 | 6010 ft | 234 kts | 259° |
| 2026-04-20 15:25 | -15.94787 | -47.95905 | 6023 ft | 225 kts | 259° |
| 2026-04-20 15:26 | -15.95089 | -47.97494 | 6008 ft | 224 kts | 257° |
| 2026-04-20 15:26 | -15.95391 | -47.99073 | 5999 ft | 222 kts | 257° |
| 2026-04-20 15:26 | -15.95684 | -48.00598 | 5994 ft | 214 kts | 258° |
| 2026-04-20 15:26 | -15.95973 | -48.02099 | 5982 ft | 210 kts | 258° |
| 2026-04-20 15:27 | -15.96260 | -48.03587 | 5982 ft | 211 kts | 258° |
| 2026-04-20 15:27 | -15.96549 | -48.05082 | 5975 ft | 211 kts | 258° |
| 2026-04-20 15:27 | -15.96595 | -48.06593 | 5903 ft | 211 kts | 282° |
| 2026-04-20 15:27 | -15.95942 | -48.07927 | 5813 ft | 209 kts | 313° |
| 2026-04-20 15:28 | -15.94754 | -48.08742 | 5760 ft | 204 kts | 344° |
| 2026-04-20 15:28 | -15.93356 | -48.08894 | 5733 ft | 203 kts | 4° |
| 2026-04-20 15:28 | -15.91968 | -48.09005 | 5703 ft | 203 kts | 355° |
| 2026-04-20 15:28 | -15.90567 | -48.09003 | 5676 ft | 202 kts | 17° |
| 2026-04-20 15:29 | -15.89419 | -48.08255 | 5652 ft | 195 kts | 51° |
| 2026-04-20 15:29 | -15.88892 | -48.06988 | 5645 ft | 194 kts | 84° |
| 2026-04-20 15:29 | -15.88798 | -48.05621 | 5582 ft | 187 kts | 88° |
| 2026-04-20 15:29 | -15.88721 | -48.04292 | 5407 ft | 181 kts | 88° |
| 2026-04-20 15:30 | -15.88643 | -48.03047 | 5195 ft | 164 kts | 88° |
| 2026-04-20 15:30 | -15.88572 | -48.01942 | 5030 ft | 146 kts | 87° |
| 2026-04-20 15:30 | -15.88508 | -48.00923 | 4861 ft | 140 kts | 85° |
| 2026-04-20 15:30 | -15.88445 | -47.99923 | 4657 ft | 139 kts | 86° |
| 2026-04-20 15:31 | -15.88381 | -47.98929 | 4511 ft | 136 kts | 85° |
| 2026-04-20 15:31 | -15.88319 | -47.97953 | 4321 ft | 136 kts | 87° |
| 2026-04-20 15:31 | -15.88257 | -47.96973 | 4140 ft | 136 kts | 87° |
| 2026-04-20 15:31 | -15.88191 | -47.96000 | 3981 ft | 136 kts | 86° |
| 2026-04-20 15:32 | -15.88130 | -47.95023 | 3788 ft | 135 kts | 88° |
| 2026-04-20 15:32 | -15.88070 | -47.94055 | 3572 ft | 136 kts | 88° |
| 2026-04-20 15:32 | -15.88011 | -47.93123 | 3486 ft | 120 kts | 86° |
| 2026-04-20 15:32 | -15.87969 | -47.92462 | 3479 ft | 64 kts | 86° |
| 2026-04-20 15:33 | -15.87949 | -47.92164 | 3473 ft | 37 kts | 86° |
| 2026-04-20 15:33 | -15.87910 | -47.91877 | 3469 ft | 43 kts | 69° |
| 2026-04-20 15:33 | -15.87800 | -47.91696 | 3462 ft | 28 kts | 57° |
| 2026-04-20 15:33 | -15.87706 | -47.91563 | 3462 ft | 17 kts | 23° |
| 2026-04-20 15:34 | -15.87601 | -47.91556 | 3466 ft | 14 kts | 359° |
| 2026-04-20 15:34 | -15.87515 | -47.91562 | 3469 ft | 12 kts | 357° |
| 2026-04-20 15:34 | -15.87421 | -47.91565 | 3472 ft | 15 kts | 359° |
| 2026-04-20 15:34 | -15.87320 | -47.91584 | 3471 ft | 11 kts | 320° |
| 2026-04-20 15:35 | -15.87312 | -47.91649 | 3472 ft | 9 kts | 267° |
| 2026-04-20 15:35 | -15.87315 | -47.91707 | 3472 ft | 8 kts | 266° |
| 2026-04-20 15:35 | -15.87317 | -47.91747 | 3472 ft | 4 kts | 267° |
| 2026-04-20 15:35 | -15.87320 | -47.91775 | 3472 ft | 4 kts | 268° |
| 2026-04-20 15:36 | -15.87281 | -47.91799 | 3472 ft | 3 kts | 352° |
| 2026-04-20 15:36 | -15.87266 | -47.91800 | 3472 ft | 1 kts | 355° |